This is the latest recevied weather packets stored in our database for station/object EA1ZE. If no packets are shown the sender has not sent any weather packets the latest 10 day(s).
| Time | Temp. | Humidity | Pressure | Rain* | Wind** | Luminosity | Snow |
|---|---|---|---|---|---|---|---|
| 1777885258 | 12.22° C | 78% | 1012.4 hPa | 0 mm | - | - | - |
| 1777884328 | 12.22° C | 75% | 1012.5 hPa | 0 mm | - | - | - |
| 1777883428 | 12.22° C | 76% | 1012.5 hPa | 0 mm | - | - | - |
| 1777882525 | 11.11° C | 75% | 1012.4 hPa | 0 mm | - | - | - |
| 1777881627 | 11.11° C | 79% | 1012.3 hPa | 0 mm | - | - | - |
| 1777880723 | 11.11° C | 79% | 1012.2 hPa | 0 mm | - | - | - |
| 1777879822 | 11.11° C | 79% | 1012.1 hPa | 0 mm | - | - | - |
| 1777878921 | 11.67° C | 77% | 1012.1 hPa | 0 mm | - | - | - |
| 1777878020 | 11.67° C | 78% | 1011.9 hPa | 0 mm | - | - | - |
| 1777877122 | 11.11° C | 82% | 1011.8 hPa | 0 mm | - | - | - |
| 1777876220 | 11.11° C | 85% | 1011.7 hPa | 0 mm | - | - | - |
| 1777875322 | 10.56° C | 86% | 1011.6 hPa | 0 mm | - | - | - |
| 1777874426 | 10.56° C | 86% | 1011.6 hPa | 0 mm | - | - | - |
| 1777873516 | 10° C | 87% | 1011.5 hPa | 0 mm | - | - | - |
| 1777872622 | 10.56° C | 88% | 1011.4 hPa | 0 mm | - | - | - |
| 1777871718 | 10.56° C | 89% | 1011.2 hPa | 0 mm | - | - | - |
| 1777870815 | 10.56° C | 89% | 1011.2 hPa | 0 mm | - | - | - |
| 1777869931 | 10.56° C | 89% | 1011.1 hPa | 0 mm | - | - | - |
| 1777869019 | 10.56° C | 89% | 1011.1 hPa | 0 mm | - | - | - |
| 1777868111 | 10.56° C | 89% | 1011.1 hPa | 0 mm | - | - | - |
| 1777867210 | 10.56° C | 88% | 1011.1 hPa | 0 mm | - | - | - |
| 1777866308 | 10.56° C | 88% | 1011.1 hPa | 0 mm | - | - | - |
| 1777865410 | 10.56° C | 87% | 1011.2 hPa | 0 mm | - | - | - |
| 1777864506 | 11.11° C | 87% | 1011.3 hPa | 0 mm | - | - | - |
| 1777863605 | 11.11° C | 87% | 1011.2 hPa | 0 mm | - | - | - |
* Rain latest hour (hover to see other rain measurements)
** Current wind speed in m/s (hover to see current wind gust speed)